This is the latest recevied weather packets stored in our database for station/object KK7KHO. If no packets are shown the sender has not sent any weather packets the latest 10 day(s).
| Time | Temp. | Humidity | Pressure | Rain* | Wind** | Luminosity | Snow |
|---|---|---|---|---|---|---|---|
| 1777181290 | 10° C | 64% | 1008.1 hPa | 0 mm | - | 0 W/m² | - |
| 1777180986 | 10.56° C | 62% | 1008.2 hPa | 0 mm | - | 0 W/m² | - |
| 1777180682 | 11.11° C | 59% | 1008.1 hPa | 0 mm | - | 0 W/m² | - |
| 1777180377 | 12.78° C | 48% | 1008.2 hPa | 0 mm | - | 0 W/m² | - |
| 1777180075 | 12.78° C | 47% | 1008.1 hPa | 0 mm | - | 0 W/m² | - |
| 1777179770 | 12.78° C | 48% | 1008 hPa | 0 mm | - | 0 W/m² | - |
| 1777179466 | 12.78° C | 46% | 1008 hPa | 0 mm | - | 0 W/m² | - |
| 1777179164 | 12.78° C | 47% | 1008 hPa | 0 mm | - | 0 W/m² | - |
| 1777178861 | 12.78° C | 47% | 1008.1 hPa | 0 mm | - | 0 W/m² | - |
| 1777178559 | 12.78° C | 47% | 1008 hPa | 0 mm | - | 0 W/m² | - |
| 1777178255 | 12.22° C | 46% | 1008.1 hPa | 0 mm | - | 0 W/m² | - |
| 1777177953 | 12.22° C | 50% | 1008.4 hPa | 0 mm | - | 0 W/m² | - |
| 1777177648 | 11.67° C | 51% | 1008.2 hPa | 0 mm | - | 0 W/m² | - |
| 1777177344 | 11.67° C | 55% | 1008.2 hPa | 0 mm | - | 0 W/m² | - |
| 1777177041 | 11.67° C | 55% | 1008 hPa | 0 mm | - | 0 W/m² | - |
| 1777176736 | 11.67° C | 56% | 1008.1 hPa | 0 mm | - | 0 W/m² | - |
| 1777176434 | 12.22° C | 54% | 1008.2 hPa | 0 mm | - | 0 W/m² | - |
| 1777176124 | 12.78° C | 52% | 1008.2 hPa | 0 mm | - | 0 W/m² | - |
| 1777175823 | 12.78° C | 50% | 1008.1 hPa | 0 mm | - | 0 W/m² | - |
| 1777175523 | 12.78° C | 49% | 1008 hPa | 0 mm | - | 0 W/m² | - |
| 1777175217 | 12.78° C | 50% | 1008.2 hPa | 0 mm | - | 0 W/m² | - |
| 1777174914 | 12.78° C | 53% | 1007.9 hPa | 0 mm | - | 0 W/m² | - |
| 1777174610 | 12.78° C | 55% | 1008 hPa | 0 mm | - | 0 W/m² | - |
| 1777174304 | 13.33° C | 55% | 1008.4 hPa | 0 mm | - | 0 W/m² | - |
| 1777173999 | 13.89° C | 51% | 1007.9 hPa | 0 mm | - | 1 W/m² | - |
* Rain latest hour (hover to see other rain measurements)
** Current wind speed in m/s (hover to see current wind gust speed)